Time;durP1;ratioP1;P1;durP2;ratioP2;P2;SDS_P1;SDS_P2;PMS_P1;PMS_P2;Temp;Humidity;BMP_temperature;BMP_pressure;BME280_temperature;BME280_humidity;BME280_pressure;Samples;Min_cycle;Max_cycle;Signal;HPM_P1;HPM_P2
2022/10/09 00:02:15;;;;;;;1.07;0.50;;;9.30;99.90;8.60;100571;;;;570483;248;24087;-79
2022/10/09 00:04:43;;;;;;;0.90;0.67;;;9.40;99.90;8.70;100578;;;;570328;248;24131;-80
2022/10/09 00:07:10;;;;;;;4.00;0.70;;;9.40;99.90;8.70;100577;;;;570738;248;24131;-82
2022/10/09 00:09:40;;;;;;;1.30;0.67;;;9.40;99.90;8.60;100582;;;;579526;248;24133;-82
2022/10/09 00:12:08;;;;;;;0.70;0.70;;;9.40;99.90;8.60;100591;;;;571203;248;24087;-82
2022/10/09 00:14:35;;;;;;;0.80;0.80;;;9.30;99.90;8.60;100590;;;;570899;248;24150;-83
2022/10/09 00:17:03;;;;;;;1.57;1.00;;;9.30;99.90;8.60;100594;;;;579820;247;24097;-83
2022/10/09 00:19:34;;;;;;;0.60;0.60;;;9.30;99.90;8.60;100596;;;;571071;248;24146;-83
2022/10/09 00:22:01;;;;;;;4.73;1.00;;;9.30;99.90;8.50;100583;;;;579477;247;24157;-84
2022/10/09 00:24:28;;;;;;;1.40;1.30;;;9.30;99.90;8.50;100600;;;;571188;248;24130;-82
2022/10/09 00:26:56;;;;;;;0.93;0.93;;;9.30;99.90;8.50;100604;;;;571009;248;24076;-84
2022/10/09 00:29:24;;;;;;;0.97;0.97;;;9.30;99.90;8.50;100608;;;;571071;248;24134;-83
2022/10/09 00:31:52;;;;;;;2.57;0.70;;;9.20;99.90;8.50;100608;;;;571054;248;24140;-84
2022/10/09 00:34:20;;;;;;;1.30;1.20;;;9.30;99.90;8.50;100615;;;;569809;248;24172;-80
2022/10/09 00:36:48;;;;;;;1.87;1.03;;;9.20;99.90;8.50;100609;;;;570108;248;24092;-81
2022/10/09 00:39:16;;;;;;;6.80;1.50;;;9.20;99.90;8.40;100617;;;;565088;248;35229;-81
2022/10/09 00:41:47;;;;;;;2.97;1.20;;;9.20;99.90;8.40;100624;;;;569794;248;24142;-81
2022/10/09 00:44:45;;;;;;;1.47;1.27;;;9.10;99.90;8.30;100617;;;;579151;246;24224;-80
2022/10/09 00:47:38;;;;;;;8.10;1.30;;;9.00;99.90;8.20;100610;;;;579939;247;24145;-81
2022/10/09 00:50:24;;;;;;;1.80;1.13;;;8.90;99.90;8.10;100616;;;;570808;248;24144;-81
2022/10/09 00:52:55;;;;;;;2.87;0.80;;;8.80;99.90;8.00;100607;;;;573850;248;24109;-81
2022/10/09 00:55:24;;;;;;;4.53;1.30;;;8.60;99.90;7.90;100616;;;;570177;248;24131;-81
2022/10/09 00:57:52;;;;;;;1.20;1.10;;;8.60;99.90;7.80;100615;;;;578822;248;24110;-81
2022/10/09 01:00:20;;;;;;;2.47;1.10;;;8.60;99.90;7.80;100606;;;;570002;248;24122;-81
2022/10/09 01:02:48;;;;;;;3.00;0.93;;;8.50;99.90;7.70;100615;;;;578898;248;24156;-82
2022/10/09 01:05:16;;;;;;;4.17;1.30;;;8.50;99.90;7.70;100619;;;;570120;248;24109;-81
2022/10/09 01:07:47;;;;;;;1.10;1.10;;;8.40;99.90;7.70;100624;;;;569914;248;24171;-81
2022/10/09 01:10:38;;;;;;;2.40;1.30;;;8.40;99.90;7.70;100623;;;;573244;248;24086;-81
2022/10/09 01:13:28;;;;;;;5.23;1.13;;;8.40;99.90;7.70;100626;;;;578707;244;24186;-81
2022/10/09 01:15:58;;;;;;;2.73;0.90;;;8.40;99.90;7.60;100625;;;;578725;248;24092;-81
2022/10/09 01:18:48;;;;;;;0.90;0.90;;;8.40;99.90;7.60;100621;;;;573440;248;24095;-81
2022/10/09 01:21:17;;;;;;;1.27;1.20;;;8.30;99.90;7.60;100623;;;;578839;247;24124;-81
2022/10/09 01:24:21;;;;;;;1.00;1.00;;;8.30;99.90;7.60;100625;;;;573410;248;24088;-81
2022/10/09 01:27:04;;;;;;;2.37;0.93;;;8.30;99.90;7.50;100627;;;;578734;248;24087;-81
2022/10/09 01:29:36;;;;;;;4.70;1.17;;;8.20;99.90;7.50;100624;;;;570019;248;24186;-81
2022/10/09 01:32:06;;;;;;;3.20;1.47;;;8.20;99.90;7.50;100619;;;;570094;248;24133;-81
2022/10/09 01:34:38;;;;;;;2.50;1.20;;;8.20;99.90;7.50;100629;;;;577472;248;24124;-81
2022/10/09 01:37:02;;;;;;;2.07;0.97;;;8.20;99.90;7.40;100625;;;;569851;248;24169;-81
2022/10/09 01:39:31;;;;;;;2.30;1.00;;;8.10;99.90;7.40;100633;;;;569775;248;24138;-81
2022/10/09 01:41:59;;;;;;;3.67;1.20;;;8.10;99.90;7.40;100642;;;;569686;248;24141;-81
2022/10/09 01:44:26;;;;;;;2.03;1.33;;;8.10;99.90;7.30;100651;;;;570096;248;24124;-81
2022/10/09 01:46:58;;;;;;;2.60;1.33;;;8.00;99.90;7.30;100645;;;;578631;247;24120;-81
2022/10/09 01:49:50;;;;;;;2.37;0.90;;;8.00;99.90;7.30;100656;;;;578459;248;24094;-81
2022/10/09 01:52:36;;;;;;;2.83;0.90;;;8.00;99.90;7.20;100664;;;;570055;248;26259;-81
2022/10/09 01:55:38;;;;;;;2.00;1.30;;;8.00;99.90;7.20;100666;;;;570922;247;24118;-81
2022/10/09 01:58:30;;;;;;;3.80;1.30;;;7.90;99.90;7.20;100665;;;;571243;248;24100;-81
2022/10/09 02:01:10;;;;;;;3.63;0.87;;;7.90;99.90;7.10;100675;;;;579466;248;24095;-80
2022/10/09 02:03:43;;;;;;;2.10;1.67;;;7.90;99.90;7.10;100674;;;;570777;248;24087;-81
2022/10/09 02:06:08;;;;;;;3.80;1.40;;;7.80;99.90;7.10;100670;;;;570434;248;24150;-81
2022/10/09 02:08:39;;;;;;;2.53;1.10;;;7.80;99.90;7.00;100677;;;;573749;248;24089;-81
2022/10/09 02:11:04;;;;;;;2.40;1.40;;;7.80;99.90;7.00;100686;;;;570416;248;24165;-81
2022/10/09 02:13:33;;;;;;;2.63;1.67;;;7.70;99.90;7.00;100688;;;;570789;248;24147;-83
2022/10/09 02:16:36;;;;;;;1.40;1.30;;;7.70;99.90;7.00;100688;;;;570413;248;24144;-81
2022/10/09 02:19:24;;;;;;;3.72;2.15;;;7.70;99.90;6.90;100689;;;;566280;248;35183;-81
2022/10/09 02:21:55;;;;;;;2.63;1.47;;;7.70;99.90;6.90;100699;;;;570421;248;24134;-80
2022/10/09 02:24:26;;;;;;;4.50;1.40;;;7.70;99.90;6.90;100704;;;;578848;248;24125;-81
2022/10/09 02:26:56;;;;;;;2.87;1.53;;;7.60;99.90;6.90;100720;;;;570249;248;24151;-82
2022/10/09 02:29:26;;;;;;;3.07;1.33;;;7.60;99.90;6.80;100713;;;;573933;248;24162;-82
2022/10/09 02:31:54;;;;;;;3.63;1.93;;;7.60;99.90;6.80;100716;;;;579344;248;24122;-83
2022/10/09 02:34:19;;;;;;;2.73;1.30;;;7.50;99.90;6.80;100721;;;;579266;248;24167;-81
2022/10/09 02:36:50;;;;;;;3.93;1.50;;;7.60;99.90;6.80;100722;;;;573941;248;24103;-82
2022/10/09 02:39:19;;;;;;;1.50;1.40;;;7.50;99.90;6.70;100726;;;;579637;248;24109;-83
2022/10/09 02:41:43;;;;;;;6.30;1.50;;;7.50;99.90;6.70;100727;;;;571217;248;24124;-82
2022/10/09 02:44:11;;;;;;;2.97;2.20;;;7.50;99.90;6.60;100732;;;;571405;248;25167;-83
2022/10/09 02:46:39;;;;;;;6.13;1.60;;;7.40;99.90;6.60;100728;;;;579448;248;24193;-81
2022/10/09 02:49:10;;;;;;;2.33;1.83;;;7.40;99.90;6.60;100735;;;;570717;248;24164;-83
2022/10/09 02:51:35;;;;;;;4.30;1.70;;;7.40;99.90;6.60;100734;;;;570819;247;24177;-81
2022/10/09 02:54:02;;;;;;;2.63;1.60;;;7.30;99.90;6.60;100732;;;;579534;248;24130;-81
2022/10/09 02:56:30;;;;;;;2.17;1.70;;;7.30;99.90;6.50;100739;;;;571033;248;24079;-81
2022/10/09 02:58:58;;;;;;;1.80;1.70;;;7.30;99.90;6.50;100739;;;;579757;247;24154;-82
2022/10/09 03:01:27;;;;;;;5.43;1.87;;;7.20;99.90;6.50;100739;;;;571152;248;24137;-83
2022/10/09 03:03:55;;;;;;;3.13;1.30;;;7.20;99.90;6.50;100742;;;;571232;248;24142;-83
2022/10/09 03:06:23;;;;;;;1.70;1.60;;;7.20;99.90;6.40;100742;;;;571165;246;24098;-81
2022/10/09 03:08:55;;;;;;;4.50;1.83;;;7.20;99.90;6.40;100745;;;;581303;246;24173;-83
2022/10/09 03:11:20;;;;;;;2.43;1.40;;;7.20;99.90;6.40;100748;;;;579377;248;24132;-82
2022/10/09 03:13:48;;;;;;;5.20;2.27;;;7.20;99.90;6.30;100741;;;;572084;248;24084;-82
2022/10/09 03:16:18;;;;;;;1.70;1.50;;;7.20;99.90;6.30;100744;;;;580570;247;24097;-82
2022/10/09 03:18:46;;;;;;;10.50;1.90;;;7.10;99.90;6.30;100747;;;;571616;248;24146;-83
2022/10/09 03:21:14;;;;;;;4.27;1.57;;;7.10;99.90;6.30;100745;;;;574870;248;24094;-83
2022/10/09 03:23:44;;;;;;;5.63;1.70;;;7.10;99.90;6.30;100755;;;;568785;253;24141;-81
2022/10/09 03:26:12;;;;;;;1.53;1.43;;;7.10;99.90;6.20;100755;;;;571904;248;24061;-82
2022/10/09 03:28:47;;;;;;;7.23;1.80;;;7.00;99.90;6.20;100759;;;;574992;248;24079;-81
2022/10/09 03:31:12;;;;;;;3.63;1.73;;;7.00;99.90;6.20;100770;;;;569394;248;24165;-82
2022/10/09 03:33:40;;;;;;;2.60;1.60;;;7.00;99.90;6.30;100777;;;;571297;248;24164;-81
2022/10/09 03:36:08;;;;;;;2.10;1.50;;;7.00;99.90;6.30;100772;;;;571996;248;24184;-82
2022/10/09 03:38:40;;;;;;;3.53;1.53;;;7.00;99.90;6.30;100779;;;;571986;248;24096;-83
2022/10/09 03:41:07;;;;;;;2.97;1.90;;;7.00;99.90;6.30;100775;;;;580326;247;24148;-83
2022/10/09 03:43:35;;;;;;;4.23;1.77;;;7.10;99.90;6.30;100782;;;;571328;247;24107;-82
2022/10/09 03:46:01;;;;;;;4.73;1.97;;;7.10;99.90;6.30;100782;;;;571391;248;24083;-82
2022/10/09 03:48:29;;;;;;;3.20;1.60;;;7.00;99.90;6.30;100791;;;;574876;248;24119;-81
2022/10/09 03:50:57;;;;;;;4.03;1.87;;;7.10;99.90;6.30;100787;;;;571717;248;24086;-82
2022/10/09 03:53:28;;;;;;;7.20;1.83;;;7.10;99.90;6.30;100796;;;;571719;248;24087;-83
2022/10/09 03:55:53;;;;;;;6.70;1.90;;;7.10;99.90;6.30;100796;;;;571562;248;25168;-82
2022/10/09 03:58:21;;;;;;;2.23;1.43;;;7.00;99.90;6.20;100791;;;;571493;248;24182;-81
2022/10/09 04:00:53;;;;;;;5.07;1.93;;;7.00;99.90;6.20;100791;;;;571302;248;24089;-83
2022/10/09 04:03:21;;;;;;;4.03;2.07;;;7.00;99.90;6.30;100796;;;;569379;248;24105;-83
2022/10/09 04:05:49;;;;;;;1.70;1.60;;;7.00;99.90;6.30;100797;;;;571028;248;24106;-82
2022/10/09 04:08:17;;;;;;;2.23;2.00;;;7.10;99.90;6.30;100803;;;;571660;248;24119;-83
2022/10/09 04:10:42;;;;;;;1.77;1.67;;;7.10;99.90;6.30;100805;;;;570962;248;24090;-82
2022/10/09 04:13:10;;;;;;;4.60;2.07;;;7.10;99.90;6.30;100797;;;;571026;248;24110;-81
2022/10/09 04:15:38;;;;;;;3.07;1.73;;;7.10;99.90;6.30;100807;;;;571092;248;24135;-82
2022/10/09 04:18:05;;;;;;;6.90;1.97;;;7.10;99.90;6.30;100809;;;;571294;246;24091;-81
2022/10/09 04:20:33;;;;;;;4.33;1.47;;;7.10;99.90;6.30;100815;;;;572394;248;24133;-81
2022/10/09 04:23:01;;;;;;;4.30;2.57;;;7.10;99.90;6.30;100820;;;;571600;248;24098;-81
2022/10/09 04:25:30;;;;;;;7.57;1.90;;;7.10;99.90;6.30;100828;;;;571221;248;24091;-81
2022/10/09 04:27:58;;;;;;;3.73;1.73;;;7.00;99.90;6.30;100820;;;;571062;248;24114;-81
2022/10/09 04:30:26;;;;;;;3.60;2.00;;;7.10;99.90;6.30;100831;;;;571001;248;24155;-81
2022/10/09 04:32:54;;;;;;;4.30;2.40;;;7.10;99.90;6.40;100834;;;;571167;248;24160;-81
2022/10/09 04:35:22;;;;;;;3.80;1.80;;;7.10;99.90;6.40;100828;;;;571047;248;24131;-80
2022/10/09 04:37:53;;;;;;;3.63;2.57;;;7.20;99.90;6.40;100834;;;;570918;248;24125;-81
2022/10/09 04:40:17;;;;;;;5.90;2.67;;;7.10;99.90;6.40;100837;;;;570682;247;24165;-81
2022/10/09 04:42:45;;;;;;;10.30;2.17;;;7.10;99.90;6.40;100838;;;;571031;248;24097;-81
2022/10/09 04:45:13;;;;;;;6.13;2.07;;;7.20;99.90;6.40;100834;;;;571080;248;24072;-80
2022/10/09 04:47:41;;;;;;;4.43;2.83;;;7.10;99.90;6.40;100837;;;;570741;248;24146;-81
2022/10/09 04:50:09;;;;;;;3.33;2.10;;;7.10;99.90;6.40;100844;;;;570648;248;24104;-82
2022/10/09 04:52:38;;;;;;;3.20;1.80;;;7.10;99.90;6.40;100848;;;;570392;248;24103;-81
2022/10/09 04:55:06;;;;;;;2.03;1.87;;;7.10;99.90;6.40;100848;;;;570267;248;24159;-82
2022/10/09 04:57:34;;;;;;;3.33;2.13;;;7.10;99.90;6.40;100852;;;;570636;248;24155;-81
2022/10/09 05:00:02;;;;;;;3.20;1.80;;;7.20;99.90;6.40;100853;;;;570136;248;24190;-81
2022/10/09 05:02:29;;;;;;;3.03;2.00;;;7.20;99.90;6.40;100863;;;;570199;248;24211;-81
2022/10/09 05:04:57;;;;;;;6.40;2.00;;;7.20;99.90;6.40;100874;;;;577888;247;24183;-82
2022/10/09 05:07:25;;;;;;;3.87;2.37;;;7.20;99.90;6.50;100878;;;;570190;248;24126;-81
2022/10/09 05:09:54;;;;;;;8.43;2.07;;;7.20;99.90;6.50;100884;;;;570081;248;24147;-80
2022/10/09 05:12:21;;;;;;;4.90;1.77;;;7.20;99.90;6.50;100883;;;;570115;244;24084;-81
2022/10/09 05:14:49;;;;;;;8.50;2.07;;;7.30;99.90;6.50;100886;;;;569924;248;24104;-81
2022/10/09 05:17:17;;;;;;;6.17;2.30;;;7.30;99.90;6.60;100888;;;;569815;248;24102;-81
2022/10/09 05:19:45;;;;;;;2.27;1.50;;;7.30;99.90;6.60;100895;;;;569925;248;24278;-81
2022/10/09 05:22:13;;;;;;;3.78;2.60;;;7.30;99.90;6.60;100902;;;;564853;248;35204;-81
2022/10/09 05:24:41;;;;;;;5.23;2.00;;;7.30;99.90;6.70;100899;;;;570126;248;24084;-81
2022/10/09 05:27:09;;;;;;;3.27;1.77;;;7.40;99.90;6.70;100908;;;;570534;248;24167;-81
2022/10/09 05:29:37;;;;;;;3.20;1.60;;;7.40;99.90;6.70;100900;;;;570660;246;24086;-81
2022/10/09 05:32:05;;;;;;;4.23;1.70;;;7.50;99.90;6.80;100908;;;;571910;248;24140;-81
2022/10/09 05:34:36;;;;;;;4.20;1.90;;;7.50;99.90;6.80;100906;;;;571526;248;24080;-81
2022/10/09 05:37:04;;;;;;;3.57;1.73;;;7.60;99.90;6.90;100914;;;;571028;248;24155;-81
2022/10/09 05:39:29;;;;;;;5.83;2.07;;;7.60;99.90;6.90;100924;;;;570807;248;24232;-81
2022/10/09 05:41:57;;;;;;;5.33;2.57;;;7.70;99.90;7.00;100924;;;;572167;248;24135;-82
2022/10/09 05:44:25;;;;;;;1.80;1.60;;;7.70;99.90;7.00;100921;;;;572042;248;24042;-81
2022/10/09 05:46:53;;;;;;;3.23;2.60;;;7.70;99.90;7.00;100921;;;;572284;248;24092;-82
2022/10/09 05:49:20;;;;;;;5.73;1.93;;;7.80;99.90;7.10;100926;;;;571876;248;24101;-82
2022/10/09 05:51:48;;;;;;;4.80;2.50;;;7.80;99.90;7.20;100930;;;;571549;248;24130;-81
2022/10/09 05:54:16;;;;;;;2.67;1.90;;;7.90;99.90;7.20;100939;;;;571820;246;24090;-81
2022/10/09 05:56:44;;;;;;;8.77;6.57;;;7.90;99.90;7.30;100938;;;;560229;250;24108;-83
2022/10/09 05:59:19;;;;;;;8.60;7.37;;;8.00;99.90;7.40;100947;;;;571423;249;24125;-81
2022/10/09 06:01:47;;;;;;;8.63;4.87;;;8.10;99.90;7.50;100950;;;;571190;248;24121;-80
2022/10/09 06:04:13;;;;;;;7.57;3.50;;;8.20;99.90;7.60;100957;;;;571278;248;24088;-81
2022/10/09 06:06:41;;;;;;;5.00;2.70;;;8.30;99.90;7.70;100945;;;;574810;248;24119;-83
2022/10/09 06:09:09;;;;;;;3.17;2.50;;;8.40;99.90;7.80;100954;;;;568870;248;24110;-81
2022/10/09 06:11:37;;;;;;;7.87;2.73;;;8.50;99.90;7.90;100963;;;;570024;248;24106;-82
2022/10/09 06:14:05;;;;;;;4.67;2.63;;;8.50;99.90;8.00;100967;;;;569966;248;24186;-81
2022/10/09 06:16:33;;;;;;;4.37;2.63;;;8.60;99.90;8.10;100964;;;;573098;248;24088;-81
2022/10/09 06:19:01;;;;;;;9.57;3.10;;;8.80;99.90;8.30;100981;;;;573004;248;24095;-81
2022/10/09 06:21:29;;;;;;;30.07;4.40;;;9.00;99.90;9.30;100987;;;;569721;248;24099;-81
2022/10/09 06:24:00;;;;;;;9.23;3.23;;;9.70;99.90;11.30;100998;;;;569893;248;24130;-81
2022/10/09 06:26:30;;;;;;;9.27;3.70;;;11.30;99.90;13.30;101002;;;;578442;248;24144;-81
2022/10/09 06:29:01;;;;;;;6.50;4.03;;;13.20;99.90;15.00;101016;;;;579025;248;24171;-83
2022/10/09 06:31:29;;;;;;;7.33;2.83;;;14.90;99.90;16.40;101022;;;;574102;248;24208;-85
2022/10/09 06:33:55;;;;;;;6.77;2.50;;;18.00;99.90;18.00;101036;;;;568139;248;24110;-85
2022/10/09 06:36:27;;;;;;;4.23;1.77;;;18.00;99.90;19.60;101029;;;;579294;248;24087;-84
2022/10/09 06:38:54;;;;;;;3.00;1.93;;;19.70;99.90;21.00;101042;;;;569649;248;24131;-83
2022/10/09 06:41:19;;;;;;;3.77;1.37;;;21.00;99.90;22.30;101036;;;;570253;246;24099;-81
2022/10/09 06:43:55;;;;;;;2.33;1.20;;;22.30;99.90;23.10;101044;;;;579699;246;23148;-82
2022/10/09 06:46:24;;;;;;;5.73;1.30;;;24.20;99.90;23.90;101041;;;;579755;247;24106;-82
2022/10/09 06:48:52;;;;;;;1.90;1.00;;;24.10;99.90;24.80;101041;;;;570844;248;23171;-82
2022/10/09 06:51:20;;;;;;;2.93;1.27;;;25.00;97.00;24.80;101049;;;;568276;248;24077;-82
2022/10/09 06:53:48;;;;;;;2.17;0.97;;;25.40;93.20;24.30;101050;;;;570633;248;24072;-82
2022/10/09 06:56:16;;;;;;;3.07;1.20;;;25.10;90.30;24.40;101049;;;;579370;248;24109;-83
2022/10/09 06:58:44;;;;;;;2.53;1.33;;;25.00;88.90;24.90;101061;;;;570710;248;23125;-82
2022/10/09 07:01:14;;;;;;;4.53;1.30;;;25.30;86.10;25.60;101062;;;;579034;248;24138;-82
2022/10/09 07:03:46;;;;;;;3.00;1.40;;;25.90;82.70;26.40;101068;;;;579017;248;24073;-82
2022/10/09 07:06:20;;;;;;;1.87;1.20;;;26.60;79.70;27.00;101077;;;;567904;248;23141;-81
2022/10/09 07:08:45;;;;;;;1.67;1.30;;;27.90;73.40;27.70;101089;;;;570051;248;23092;-79
2022/10/09 07:11:13;;;;;;;3.27;1.33;;;27.80;72.40;28.10;101091;;;;567762;247;23106;-80
2022/10/09 07:13:41;;;;;;;4.00;1.40;;;28.30;67.90;28.50;101088;;;;569994;248;23247;-81
2022/10/09 07:16:12;;;;;;;3.40;1.30;;;28.70;66.20;28.90;101094;;;;570374;248;23126;-81
2022/10/09 07:18:37;;;;;;;4.32;1.60;;;29.10;64.00;29.60;101096;;;;573700;247;35299;-81
2022/10/09 07:21:05;;;;;;;3.53;1.83;;;29.60;61.70;29.90;101111;;;;570246;248;23092;-81
2022/10/09 07:23:33;;;;;;;3.83;1.30;;;30.10;59.60;30.50;101116;;;;578716;248;23158;-80
2022/10/09 07:26:01;;;;;;;6.07;1.87;;;30.60;58.10;30.90;101110;;;;570267;248;24073;-80
2022/10/09 07:28:32;;;;;;;2.03;1.40;;;31.10;57.10;31.20;101115;;;;567766;248;23132;-80
2022/10/09 07:30:56;;;;;;;5.18;1.83;;;31.50;55.80;31.30;101124;;;;569860;248;23121;-80
2022/10/09 07:33:24;;;;;;;1.80;1.30;;;31.60;54.60;31.40;101132;;;;567856;248;23104;-81
2022/10/09 07:35:53;;;;;;;2.72;1.30;;;31.70;53.90;31.50;101135;;;;567728;248;23120;-81
2022/10/09 07:38:24;;;;;;;4.93;1.50;;;31.80;53.30;32.00;101133;;;;578727;247;23115;-82
2022/10/09 07:40:48;;;;;;;1.35;0.95;;;32.20;52.00;32.00;101144;;;;570215;248;23134;-82
2022/10/09 07:43:16;;;;;;;2.35;1.25;;;32.40;51.80;31.90;101142;;;;567662;248;23116;-81
2022/10/09 07:45:48;;;;;;;3.92;1.48;;;32.30;51.30;31.40;101143;;;;567640;248;24161;-81
2022/10/09 07:48:12;;;;;;;1.48;1.30;;;31.80;52.00;31.90;101147;;;;570207;248;23111;-81
2022/10/09 07:50:44;;;;;;;3.92;1.70;;;32.90;50.40;32.60;101157;;;;569691;248;23146;-81
2022/10/09 07:53:08;;;;;;;1.98;1.17;;;32.80;50.30;33.20;101158;;;;567757;248;23138;-81
2022/10/09 07:55:36;;;;;;;3.10;1.27;;;33.50;49.50;33.50;101171;;;;568420;248;23133;-80
2022/10/09 07:58:04;;;;;;;3.30;1.33;;;33.90;48.70;33.60;101175;;;;568384;248;23158;-82
2022/10/09 08:00:32;;;;;;;5.43;1.75;;;34.10;47.90;33.50;101177;;;;568195;248;23124;-81
2022/10/09 08:03:00;;;;;;;3.08;1.33;;;34.10;48.30;33.10;101181;;;;573927;248;23101;-81
2022/10/09 08:05:28;;;;;;;3.03;1.60;;;33.80;48.10;32.20;101181;;;;567871;248;24177;-80
2022/10/09 08:07:59;;;;;;;4.95;1.87;;;33.10;48.10;29.90;101177;;;;567787;248;24103;-80
2022/10/09 08:10:27;;;;;;;3.08;1.45;;;31.40;50.50;30.40;101187;;;;570199;248;23124;-81
2022/10/09 08:12:52;;;;;;;2.97;1.40;;;31.10;51.90;30.70;101200;;;;569704;248;24168;-81
2022/10/09 08:15:20;;;;;;;3.28;1.77;;;30.50;51.70;29.60;101203;;;;568037;248;23078;-79
2022/10/09 08:17:49;;;;;;;2.83;2.30;;;29.30;52.70;27.80;101204;;;;568019;248;25195;-81
2022/10/09 08:20:21;;;;;;;4.05;2.15;;;29.20;52.70;26.70;101211;;;;579054;248;23116;-80
2022/10/09 08:22:45;;;;;;;2.15;1.45;;;28.00;55.10;25.70;101210;;;;565521;248;35270;-81
2022/10/09 08:25:13;;;;;;;5.13;1.67;;;26.90;56.70;25.60;101217;;;;567963;248;23110;-80
2022/10/09 08:27:45;;;;;;;3.70;2.07;;;26.20;59.10;27.20;101217;;;;568187;248;24143;-81
2022/10/09 08:30:09;;;;;;;4.17;1.30;;;27.30;57.70;28.10;101211;;;;578768;248;23117;-81
2022/10/09 08:32:37;;;;;;;2.90;1.27;;;28.20;55.80;28.00;101216;;;;570737;248;23092;-81
2022/10/09 08:35:06;;;;;;;2.00;1.00;;;28.60;55.00;28.20;101218;;;;567732;248;24093;-83
2022/10/09 08:37:33;;;;;;;2.73;1.00;;;28.60;54.60;28.70;101224;;;;569796;248;23104;-81
2022/10/09 08:40:01;;;;;;;6.85;1.62;;;29.00;54.60;29.90;101225;;;;567797;248;23111;-81
2022/10/09 08:42:44;;;;;;;2.92;1.55;;;30.10;53.50;30.60;101232;;;;567725;248;23110;-81
2022/10/09 08:45:12;;;;;;;6.03;1.70;;;31.00;52.00;30.90;101245;;;;578726;248;23197;-82
2022/10/09 08:47:44;;;;;;;1.50;0.82;;;31.50;50.30;30.80;101229;;;;578679;248;23144;-84
2022/10/09 08:50:26;;;;;;;3.28;1.25;;;31.50;50.30;31.60;101244;;;;579259;248;23094;-81
2022/10/09 08:53:31;;;;;;;3.90;1.30;;;32.10;50.40;32.70;101242;;;;570029;248;24199;-84
2022/10/09 08:55:59;;;;;;;2.22;1.73;;;33.30;49.10;33.70;101249;;;;570552;248;23130;-84
2022/10/09 08:58:37;;;;;;;2.70;1.50;;;34.90;46.10;34.00;101250;;;;570651;248;23136;-83
2022/10/09 09:01:04;;;;;;;2.40;1.48;;;34.90;46.00;34.20;101256;;;;567946;248;23113;-87
2022/10/09 09:03:44;;;;;;;1.87;1.10;;;35.20;45.40;34.30;101259;;;;578420;248;23173;-81
2022/10/09 09:06:17;;;;;;;2.30;1.45;;;35.40;45.00;34.00;101262;;;;571140;248;23131;-80
2022/10/09 09:08:54;;;;;;;4.30;1.33;;;35.30;44.60;33.60;101264;;;;570897;248;23110;-80
2022/10/09 09:11:34;;;;;;;3.72;1.48;;;34.80;45.30;33.60;101265;;;;569428;248;23101;-81
2022/10/09 09:14:47;;;;;;;2.35;1.20;;;34.60;45.40;32.50;101264;;;;570508;248;23090;-80
2022/10/09 09:17:33;;;;;;;4.97;1.75;;;34.00;45.20;29.80;101271;;;;570541;248;23109;-83
2022/10/09 09:20:10;;;;;;;1.25;0.98;;;31.70;47.20;27.70;101268;;;;570559;248;23110;-84
2022/10/09 09:22:38;;;;;;;4.00;1.42;;;29.60;49.90;26.80;101267;;;;570803;248;23090;-85
2022/10/09 09:25:30;;;;;;;4.10;1.73;;;28.20;52.70;26.10;101271;;;;578936;247;23160;-83
2022/10/09 09:27:58;;;;;;;5.13;1.13;;;27.40;53.20;25.00;101271;;;;570908;248;24118;-84
2022/10/09 09:30:35;;;;;;;4.00;0.93;;;26.20;55.00;24.30;101273;;;;579135;248;23202;-83
2022/10/09 09:33:23;;;;;;;3.10;1.40;;;25.40;56.30;23.60;101276;;;;570590;248;23146;-81
2022/10/09 09:36:22;;;;;;;5.00;1.10;;;24.70;58.20;23.00;101268;;;;571027;248;23110;-85
2022/10/09 09:38:50;;;;;;;1.93;0.77;;;24.20;58.90;23.40;101272;;;;570511;248;24088;-83
2022/10/09 09:41:18;;;;;;;2.30;1.20;;;24.50;58.90;24.00;101271;;;;573881;248;24092;-84
2022/10/09 09:43:46;;;;;;;3.37;1.10;;;24.90;58.40;24.50;101276;;;;566735;248;23101;-85
2022/10/09 09:46:23;;;;;;;3.83;1.17;;;25.40;57.70;25.00;101282;;;;568177;248;23108;-82
2022/10/09 09:48:55;;;;;;;2.80;1.30;;;25.90;56.90;24.90;101277;;;;578817;247;23119;-85
2022/10/09 09:51:21;;;;;;;2.70;1.33;;;26.10;56.20;25.10;101277;;;;569503;248;23133;-85
2022/10/09 09:53:49;;;;;;;1.73;1.27;;;26.30;56.00;24.10;101289;;;;579102;248;24135;-84
2022/10/09 09:56:22;;;;;;;3.63;1.20;;;25.30;57.40;23.70;101278;;;;578804;248;23098;-84
2022/10/09 09:58:49;;;;;;;2.43;1.00;;;25.20;57.30;23.00;101273;;;;573452;248;23114;-85
2022/10/09 10:01:23;;;;;;;4.73;1.43;;;24.30;59.80;23.00;101280;;;;578741;248;23132;-84
2022/10/09 10:03:54;;;;;;;1.83;0.97;;;24.20;59.80;23.60;101279;;;;578874;248;24159;-85
2022/10/09 10:06:33;;;;;;;3.00;1.00;;;24.60;60.20;24.20;101265;;;;578967;248;24082;-82
2022/10/09 10:09:04;;;;;;;3.00;1.17;;;25.10;59.10;24.80;101275;;;;568080;248;24090;-83
2022/10/09 10:11:34;;;;;;;4.73;1.10;;;25.70;58.30;24.80;101274;;;;579118;248;24094;-83
2022/10/09 10:14:05;;;;;;;3.87;1.27;;;25.90;57.60;24.40;101285;;;;568270;248;23153;-83
2022/10/09 10:16:34;;;;;;;1.77;1.10;;;25.10;58.70;23.80;101275;;;;579828;246;24113;-84
2022/10/09 10:19:05;;;;;;;2.63;1.30;;;24.40;59.10;23.10;101276;;;;571699;248;24082;-81
2022/10/09 10:21:41;;;;;;;3.97;1.20;;;24.40;59.60;22.40;101279;;;;571296;248;24080;-84
2022/10/09 10:24:10;;;;;;;4.20;1.23;;;22.50;63.00;21.10;101288;;;;580690;246;24120;-83
2022/10/09 10:26:47;;;;;;;1.80;1.13;;;22.40;63.00;20.40;101294;;;;579621;248;24121;-83
2022/10/09 10:29:20;;;;;;;2.87;1.30;;;21.60;65.80;19.40;101297;;;;571098;248;24078;-86
2022/10/09 10:32:09;;;;;;;4.03;0.90;;;20.50;68.30;18.50;101295;;;;579201;248;23101;-85
2022/10/09 10:34:40;;;;;;;1.27;0.83;;;19.60;69.00;17.50;101296;;;;569368;248;24147;-85
2022/10/09 10:37:14;;;;;;;4.77;0.93;;;18.50;71.90;16.70;101290;;;;570945;248;24082;-84
2022/10/09 10:39:48;;;;;;;3.00;0.90;;;17.00;78.10;16.20;101296;;;;579445;248;24106;-85
2022/10/09 10:42:26;;;;;;;2.70;0.80;;;16.90;78.00;15.80;101301;;;;571058;248;24085;-83
2022/10/09 10:45:02;;;;;;;0.90;0.70;;;16.00;82.60;15.30;101302;;;;565022;248;24171;-83
2022/10/09 10:47:28;;;;;;;1.33;0.90;;;15.90;82.50;15.10;101305;;;;579145;248;24110;-86
2022/10/09 10:49:57;;;;;;;4.47;0.70;;;15.40;84.80;14.80;101300;;;;579178;248;24102;-83
2022/10/09 10:52:40;;;;;;;2.47;0.60;;;15.30;84.70;14.60;101294;;;;568553;248;24079;-86
2022/10/09 10:55:16;;;;;;;2.03;0.90;;;15.10;86.10;14.40;101291;;;;579222;248;24083;-85
2022/10/09 10:58:04;;;;;;;2.40;0.80;;;14.90;86.70;14.20;101296;;;;570622;248;24077;-84
2022/10/09 11:00:32;;;;;;;3.10;0.90;;;14.70;87.90;14.10;101297;;;;568255;248;24076;-82
2022/10/09 11:03:05;;;;;;;5.07;0.80;;;14.60;89.40;14.00;101304;;;;578709;248;24181;-83
2022/10/09 11:05:36;;;;;;;1.43;0.70;;;14.50;90.20;13.90;101292;;;;570024;248;24223;-81
2022/10/09 11:08:32;;;;;;;1.57;0.83;;;14.50;91.30;14.00;101298;;;;578492;248;24113;-81
2022/10/09 11:11:32;;;;;;;2.83;0.83;;;14.50;91.30;14.20;101291;;;;567853;248;24150;-79
2022/10/09 11:14:20;;;;;;;2.00;0.80;;;15.00;91.90;14.50;101294;;;;567544;248;24119;-80
2022/10/09 11:16:48;;;;;;;3.80;0.90;;;15.00;91.90;14.90;101289;;;;567388;248;24084;-81
2022/10/09 11:19:21;;;;;;;1.00;0.90;;;15.30;92.20;15.10;101295;;;;569987;248;24093;-80
2022/10/09 11:21:52;;;;;;;2.27;0.80;;;15.60;91.70;15.30;101290;;;;569958;248;24083;-80
2022/10/09 11:24:38;;;;;;;3.80;1.03;;;15.80;91.40;15.50;101289;;;;569956;248;24090;-82
2022/10/09 11:27:39;;;;;;;7.00;1.10;;;16.00;91.50;15.90;101295;;;;569880;248;24108;-81
2022/10/09 11:30:13;;;;;;;1.57;0.70;;;16.40;91.60;16.20;101289;;;;571288;248;24101;-80
2022/10/09 11:33:12;;;;;;;5.17;0.77;;;16.70;89.90;16.40;101285;;;;570842;248;24121;-79
2022/10/09 11:35:58;;;;;;;3.10;1.23;;;16.90;86.70;16.60;101286;;;;577477;248;24086;-80
2022/10/09 11:38:28;;;;;;;3.30;0.80;;;17.10;84.40;16.70;101292;;;;579292;248;24074;-80